Time;durP1;ratioP1;P1;durP2;ratioP2;P2;SDS_P1;SDS_P2;PMS_P1;PMS_P2;Temp;Humidity;BMP_temperature;BMP_pressure;BME280_temperature;BME280_humidity;BME280_pressure;Samples;Min_cycle;Max_cycle;Signal;HPM_P1;HPM_P2
2023/03/08 00:00:09;;;;;;;6.18;4.15;;;22.80;38.80;;;;;;6199221;28;80880;-58
2023/03/08 00:03:11;;;;;;;7.32;3.80;;;22.80;38.60;;;;;;6202072;28;80302;-59
2023/03/08 00:06:12;;;;;;;5.50;3.85;;;22.80;38.50;;;;;;6202244;28;80397;-59
2023/03/08 00:09:12;;;;;;;5.95;3.80;;;22.80;38.70;;;;;;6202181;28;80912;-58
2023/03/08 00:12:13;;;;;;;6.10;3.70;;;22.80;38.60;;;;;;6200388;28;82103;-58
2023/03/08 00:15:13;;;;;;;4.38;3.45;;;22.70;38.80;;;;;;6201679;28;80101;-58
2023/03/08 00:18:15;;;;;;;5.20;3.45;;;22.80;38.50;;;;;;6200816;28;80128;-59
2023/03/08 00:21:15;;;;;;;5.30;3.42;;;22.80;38.80;;;;;;6202186;28;80593;-58
2023/03/08 00:24:16;;;;;;;4.95;3.30;;;22.70;38.70;;;;;;6201208;28;80029;-57
2023/03/08 00:27:17;;;;;;;4.55;2.90;;;22.80;38.90;;;;;;6201403;28;81521;-59
2023/03/08 00:30:17;;;;;;;5.05;3.30;;;22.80;38.80;;;;;;6201278;28;80933;-57
2023/03/08 00:33:18;;;;;;;4.35;3.10;;;22.70;38.50;;;;;;6201192;28;80547;-56
2023/03/08 00:36:18;;;;;;;4.90;3.33;;;22.70;38.80;;;;;;6201158;28;82732;-59
2023/03/08 00:39:19;;;;;;;4.25;2.80;;;22.70;38.70;;;;;;6200272;28;80265;-58
2023/03/08 00:42:19;;;;;;;5.38;2.88;;;22.70;38.50;;;;;;6202044;28;80415;-59
2023/03/08 00:45:20;;;;;;;3.35;2.65;;;22.70;38.90;;;;;;6201162;28;80355;-58
2023/03/08 00:48:21;;;;;;;3.60;2.70;;;22.70;38.70;;;;;;6200641;28;80632;-59
2023/03/08 00:51:21;;;;;;;4.82;3.38;;;22.70;38.80;;;;;;6200884;28;80499;-59
2023/03/08 00:54:22;;;;;;;4.38;3.10;;;22.70;38.70;;;;;;6199828;28;82901;-57
2023/03/08 00:57:22;;;;;;;5.25;3.28;;;22.70;38.70;;;;;;6194632;28;81425;-55
2023/03/08 01:00:23;;;;;;;3.97;2.92;;;22.70;38.80;;;;;;6196010;28;80553;-58
2023/03/08 01:03:23;;;;;;;4.40;3.20;;;22.70;38.60;;;;;;6191953;28;81902;-56
2023/03/08 01:06:24;;;;;;;4.45;3.00;;;22.70;38.60;;;;;;6195840;28;81661;-56
2023/03/08 01:09:25;;;;;;;3.20;2.40;;;22.70;38.80;;;;;;6195023;28;81769;-58
2023/03/08 01:12:25;;;;;;;3.60;2.53;;;22.70;38.70;;;;;;6196205;28;81906;-58
2023/03/08 01:15:26;;;;;;;3.35;2.42;;;22.70;38.70;;;;;;6199863;28;81723;-57
2023/03/08 01:18:27;;;;;;;3.65;2.75;;;22.70;38.90;;;;;;6200434;28;80717;-58
2023/03/08 01:21:27;;;;;;;4.60;2.25;;;22.70;39.20;;;;;;6195887;28;83624;-57
2023/03/08 01:24:29;;;;;;;3.90;2.70;;;22.70;39.00;;;;;;6193455;28;83934;-59
2023/03/08 01:27:31;;;;;;;3.45;2.72;;;22.70;38.90;;;;;;6189193;28;83215;-58
2023/03/08 01:30:31;;;;;;;3.35;2.33;;;22.70;38.80;;;;;;6166465;28;83262;-58
2023/03/08 01:40:25;;;;;;;3.13;2.40;;;22.70;39.20;;;;;;6203536;28;80429;-58
2023/03/08 01:43:26;;;;;;;3.88;2.92;;;22.70;39.20;;;;;;6196824;28;83098;-59
2023/03/08 01:46:26;;;;;;;3.35;2.70;;;22.70;39.20;;;;;;6197979;28;81765;-57
2023/03/08 01:49:34;;;;;;;2.70;2.28;;;22.70;39.40;;;;;;6196810;28;83094;-58
2023/03/08 01:52:37;;;;;;;3.88;2.40;;;22.70;39.10;;;;;;6207124;28;82104;-57
2023/03/08 01:55:37;;;;;;;5.07;2.47;;;22.70;39.40;;;;;;6192878;28;83354;-57
2023/03/08 01:58:38;;;;;;;2.72;2.22;;;22.70;39.50;;;;;;6216584;28;80301;-56
2023/03/08 02:01:38;;;;;;;4.03;2.40;;;22.70;39.20;;;;;;6205841;28;83415;-56
2023/03/08 02:04:39;;;;;;;2.92;2.28;;;22.70;39.60;;;;;;6208699;28;82122;-58
2023/03/08 02:07:43;;;;;;;3.72;2.25;;;22.70;39.50;;;;;;6210110;28;81592;-58
2023/03/08 02:10:44;;;;;;;2.92;2.15;;;22.70;39.40;;;;;;6193804;28;85529;-58
2023/03/08 02:13:44;;;;;;;3.30;2.30;;;22.70;39.50;;;;;;6197965;28;83156;-56
2023/03/08 02:16:46;;;;;;;3.47;2.83;;;22.70;39.60;;;;;;6225380;28;81810;-57
2023/03/08 02:19:46;;;;;;;3.55;2.20;;;22.70;39.60;;;;;;6225774;28;80645;-56
2023/03/08 02:22:50;;;;;;;3.45;2.47;;;22.70;39.60;;;;;;6224551;28;80560;-58
2023/03/08 02:25:51;;;;;;;4.13;2.85;;;22.70;39.60;;;;;;6224235;28;80520;-58
2023/03/08 02:28:51;;;;;;;5.30;2.85;;;22.70;39.60;;;;;;6195215;28;83029;-57
2023/03/08 02:31:55;;;;;;;3.70;2.83;;;22.70;39.60;;;;;;6228012;28;82719;-57
2023/03/08 02:34:55;;;;;;;4.93;2.75;;;22.70;40.00;;;;;;6201598;28;83678;-58
2023/03/08 02:37:56;;;;;;;5.07;2.95;;;22.60;39.60;;;;;;6227695;28;81475;-58
2023/03/08 02:40:57;;;;;;;4.85;3.03;;;22.60;39.60;;;;;;6228421;28;80433;-58
2023/03/08 02:43:58;;;;;;;3.60;2.83;;;22.60;39.40;;;;;;6186186;28;82323;-57
2023/03/08 02:46:58;;;;;;;3.28;2.50;;;22.60;39.40;;;;;;6185479;28;81842;-58
2023/03/08 02:49:59;;;;;;;3.13;2.30;;;22.60;39.60;;;;;;6182514;28;83050;-58
2023/03/08 02:52:59;;;;;;;3.70;2.65;;;22.60;39.60;;;;;;6209502;28;83459;-57
2023/03/08 02:56:00;;;;;;;4.38;3.30;;;22.60;39.60;;;;;;6225444;28;80858;-57
2023/03/08 02:59:00;;;;;;;4.82;3.40;;;22.60;39.30;;;;;;6200092;28;81701;-58
2023/03/08 03:02:01;;;;;;;3.80;2.88;;;22.60;39.60;;;;;;6209400;28;81896;-58
2023/03/08 03:05:02;;;;;;;3.88;2.80;;;22.60;39.80;;;;;;6208308;28;82827;-57
2023/03/08 03:08:02;;;;;;;4.18;3.10;;;22.60;39.60;;;;;;6227281;28;80475;-58
2023/03/08 03:11:03;;;;;;;4.50;2.97;;;22.60;39.50;;;;;;6186302;28;81822;-58
2023/03/08 03:14:04;;;;;;;4.57;2.80;;;22.60;39.30;;;;;;6192764;28;80980;-58
2023/03/08 03:17:10;;;;;;;3.33;2.53;;;22.60;39.20;;;;;;6196350;28;82332;-57
2023/03/08 03:20:10;;;;;;;4.28;2.88;;;22.70;39.50;;;;;;6215014;28;80388;-60
2023/03/08 03:23:11;;;;;;;4.40;3.13;;;22.60;39.60;;;;;;6200963;28;82165;-58
2023/03/08 03:26:17;;;;;;;4.38;2.60;;;22.60;39.60;;;;;;6200749;28;83292;-57
2023/03/08 03:29:20;;;;;;;4.72;2.88;;;22.60;39.50;;;;;;6203523;28;81415;-57
2023/03/08 03:32:25;;;;;;;3.88;2.70;;;22.60;39.30;;;;;;6208091;28;82293;-57
2023/03/08 03:35:26;;;;;;;6.13;2.72;;;22.70;39.10;;;;;;6208582;28;83436;-57
2023/03/08 03:38:27;;;;;;;3.78;2.40;;;22.70;39.20;;;;;;6226893;28;80460;-56
2023/03/08 03:41:27;;;;;;;3.33;2.70;;;22.70;39.90;;;;;;6207263;28;83226;-57
2023/03/08 03:44:36;;;;;;;3.90;2.70;;;22.60;39.20;;;;;;6202292;28;83302;-58
2023/03/08 03:47:37;;;;;;;2.60;1.95;;;22.60;39.10;;;;;;6208448;28;82802;-59
2023/03/08 03:50:40;;;;;;;2.38;2.17;;;22.70;39.30;;;;;;6208232;28;83365;-59
2023/03/08 03:53:46;;;;;;;3.10;2.42;;;22.60;39.50;;;;;;6189664;28;82893;-57
2023/03/08 03:56:48;;;;;;;2.85;2.13;;;22.70;39.60;;;;;;6195268;28;82785;-57
2023/03/08 03:59:49;;;;;;;4.43;2.65;;;22.70;39.40;;;;;;6219319;28;80362;-60
2023/03/08 04:02:50;;;;;;;3.03;2.22;;;22.60;39.10;;;;;;6225488;28;80552;-60
2023/03/08 04:05:53;;;;;;;3.72;2.30;;;22.60;39.20;;;;;;6195353;28;83460;-58
2023/03/08 04:08:54;;;;;;;2.95;2.50;;;22.60;39.20;;;;;;6208932;28;83387;-59
2023/03/08 04:11:55;;;;;;;4.95;2.97;;;22.60;39.00;;;;;;6207658;28;81576;-56
2023/03/08 04:14:57;;;;;;;4.20;2.90;;;22.60;39.10;;;;;;6194799;28;83208;-57
2023/03/08 04:18:01;;;;;;;5.07;2.92;;;22.60;39.10;;;;;;6194456;28;82114;-57
2023/03/08 04:21:05;;;;;;;2.92;2.42;;;22.60;38.80;;;;;;6206759;28;84007;-57
2023/03/08 04:24:05;;;;;;;3.60;2.47;;;22.60;38.80;;;;;;6207553;28;83232;-59
2023/03/08 04:27:06;;;;;;;3.65;2.47;;;22.50;39.10;;;;;;6206028;28;82805;-58
2023/03/08 04:30:07;;;;;;;3.60;2.42;;;22.50;38.90;;;;;;6224516;28;81490;-58
2023/03/08 04:33:09;;;;;;;3.03;2.20;;;22.50;38.80;;;;;;6208719;28;83364;-57
2023/03/08 04:36:17;;;;;;;2.65;2.08;;;22.50;38.70;;;;;;6207593;28;84245;-57
2023/03/08 04:39:19;;;;;;;2.75;2.47;;;22.50;38.90;;;;;;6203004;28;82449;-58
2023/03/08 04:42:19;;;;;;;3.75;2.47;;;22.50;38.80;;;;;;6213827;28;82932;-58
2023/03/08 04:45:21;;;;;;;4.35;2.30;;;22.50;38.70;;;;;;6226161;28;81332;-58
2023/03/08 04:48:23;;;;;;;3.83;2.45;;;22.60;38.90;;;;;;6218578;28;82724;-59
2023/03/08 04:51:23;;;;;;;2.67;2.15;;;22.60;38.70;;;;;;6224024;28;80713;-62
2023/03/08 04:54:24;;;;;;;4.28;2.30;;;22.60;38.90;;;;;;6216222;28;81755;-59
2023/03/08 04:57:34;;;;;;;3.38;2.10;;;22.60;39.00;;;;;;6215883;28;82938;-69
2023/03/08 05:00:34;;;;;;;5.63;2.17;;;22.60;38.80;;;;;;6201243;28;80656;-60
2023/03/08 05:03:35;;;;;;;3.72;2.35;;;22.60;39.50;;;;;;6205989;28;83786;-58
2023/03/08 05:06:36;;;;;;;3.47;2.53;;;22.60;38.90;;;;;;6204496;28;85153;-59
2023/03/08 05:09:38;;;;;;;3.40;2.17;;;22.60;39.00;;;;;;6203300;28;80782;-55
2023/03/08 05:12:38;;;;;;;2.97;2.30;;;22.60;39.00;;;;;;6206968;28;85460;-61
2023/03/08 05:15:39;;;;;;;4.60;2.35;;;22.60;39.30;;;;;;6202403;28;83755;-62
2023/03/08 05:18:40;;;;;;;3.80;2.42;;;22.50;39.10;;;;;;6208136;28;80198;-61
2023/03/08 05:21:41;;;;;;;3.20;2.45;;;22.50;39.30;;;;;;6207043;28;83359;-61
2023/03/08 05:24:42;;;;;;;3.40;2.30;;;22.50;40.10;;;;;;6208377;28;84042;-61
2023/03/08 05:27:45;;;;;;;2.38;1.90;;;22.50;40.90;;;;;;6219824;28;85976;-61
2023/03/08 05:30:46;;;;;;;4.32;2.28;;;22.50;40.90;;;;;;6214641;28;83110;-62
2023/03/08 05:33:48;;;;;;;5.07;1.95;;;22.60;41.30;;;;;;6200817;28;83583;-61
2023/03/08 05:36:52;;;;;;;2.58;2.08;;;22.60;41.10;;;;;;6218892;28;87382;-59
2023/03/08 05:39:53;;;;;;;3.03;2.33;;;22.60;41.40;;;;;;6207718;28;80864;-61
2023/03/08 05:42:56;;;;;;;5.15;2.10;;;22.60;41.80;;;;;;6216584;28;83502;-63
2023/03/08 05:45:59;;;;;;;4.70;1.95;;;22.60;41.30;;;;;;6216120;28;81709;-61
2023/03/08 05:49:01;;;;;;;3.25;2.08;;;22.60;41.20;;;;;;6216863;28;83508;-66
2023/03/08 05:52:06;;;;;;;5.93;2.20;;;22.60;41.00;;;;;;6215764;28;80847;-64
2023/03/08 05:55:07;;;;;;;2.63;2.00;;;22.60;40.90;;;;;;6217323;28;81637;-60
2023/03/08 05:58:08;;;;;;;4.68;2.17;;;22.60;40.90;;;;;;6215606;28;83510;-64
2023/03/08 06:01:10;;;;;;;3.25;2.15;;;22.60;40.70;;;;;;6209869;28;83096;-62
2023/03/08 06:04:10;;;;;;;5.47;2.13;;;22.60;40.50;;;;;;6210082;28;84139;-62
2023/03/08 06:07:14;;;;;;;3.90;2.13;;;22.60;40.50;;;;;;6219182;28;83413;-63
2023/03/08 06:10:20;;;;;;;2.50;1.80;;;22.60;40.60;;;;;;6216127;28;84506;-60
2023/03/08 06:13:20;;;;;;;5.22;2.10;;;22.60;40.70;;;;;;6209096;28;82432;-60
2023/03/08 06:16:21;;;;;;;3.17;2.30;;;22.60;40.20;;;;;;6216749;28;80842;-61
2023/03/08 06:19:22;;;;;;;2.75;2.05;;;22.60;40.00;;;;;;6213709;28;83219;-62
2023/03/08 06:22:25;;;;;;;3.83;2.10;;;22.60;40.00;;;;;;6225174;28;80772;-61
2023/03/08 06:25:26;;;;;;;3.15;2.08;;;22.50;39.80;;;;;;6209072;28;83554;-61
2023/03/08 06:28:27;;;;;;;4.50;2.00;;;22.50;39.50;;;;;;6226204;28;82785;-61
2023/03/08 06:31:28;;;;;;;3.72;2.72;;;22.50;39.50;;;;;;6212921;28;83462;-62
2023/03/08 06:34:30;;;;;;;3.78;2.22;;;22.50;39.20;;;;;;6215511;28;83769;-64
2023/03/08 06:37:30;;;;;;;4.07;2.10;;;22.50;39.20;;;;;;6215778;28;83376;-61
2023/03/08 06:40:32;;;;;;;7.10;1.90;;;22.50;39.00;;;;;;6224234;28;83212;-62
2023/03/08 06:43:34;;;;;;;3.72;2.45;;;22.50;39.00;;;;;;6222424;28;80404;-63
2023/03/08 06:46:35;;;;;;;2.60;2.13;;;22.50;38.90;;;;;;6226974;28;84237;-61
2023/03/08 06:49:35;;;;;;;4.75;2.13;;;22.50;38.80;;;;;;6228040;28;80636;-77
2023/03/08 06:52:36;;;;;;;3.85;2.00;;;22.50;38.70;;;;;;6217303;28;81053;-73
2023/03/08 06:55:38;;;;;;;3.28;2.22;;;22.60;38.60;;;;;;6191312;28;83002;-74
2023/03/08 06:58:38;;;;;;;3.83;2.30;;;22.50;38.50;;;;;;6195295;28;82924;-74
2023/03/08 07:01:39;;;;;;;4.82;2.60;;;22.60;38.50;;;;;;6209997;28;80753;-74
2023/03/08 07:04:40;;;;;;;2.95;2.05;;;22.60;38.30;;;;;;6228881;28;82982;-74
2023/03/08 07:07:40;;;;;;;6.43;2.35;;;22.70;38.10;;;;;;6228433;28;80546;-73
2023/03/08 07:10:41;;;;;;;2.85;1.95;;;22.70;38.00;;;;;;6230438;28;80309;-71
2023/03/08 07:13:42;;;;;;;3.42;1.92;;;22.70;38.00;;;;;;6222682;28;82809;-72
2023/03/08 07:16:42;;;;;;;3.35;2.47;;;22.70;38.00;;;;;;6228055;28;80539;-71
2023/03/08 07:19:43;;;;;;;3.38;2.17;;;22.80;37.90;;;;;;6223108;28;80230;-75
2023/03/08 07:22:43;;;;;;;3.42;2.15;;;22.70;37.80;;;;;;6218288;28;81120;-72
2023/03/08 07:25:44;;;;;;;3.65;2.50;;;22.70;37.70;;;;;;6220256;28;80345;-71
2023/03/08 07:28:44;;;;;;;3.35;2.25;;;22.70;37.90;;;;;;6225065;28;82534;-74
2023/03/08 07:31:45;;;;;;;3.60;2.13;;;22.70;37.70;;;;;;6229292;28;80295;-74
2023/03/08 07:34:45;;;;;;;5.32;2.22;;;22.70;37.70;;;;;;6202217;28;82282;-71
2023/03/08 07:37:46;;;;;;;2.78;2.10;;;22.70;37.70;;;;;;6225968;28;80506;-72
2023/03/08 07:40:46;;;;;;;2.67;2.08;;;22.70;37.70;;;;;;6228978;28;81618;-73
2023/03/08 07:43:47;;;;;;;4.68;2.30;;;22.70;37.60;;;;;;6223340;28;81567;-71
2023/03/08 07:46:51;;;;;;;2.90;2.30;;;22.70;37.80;;;;;;6227555;28;81852;-69
2023/03/08 07:49:51;;;;;;;6.47;1.95;;;22.70;37.60;;;;;;6206677;28;81861;-66
2023/03/08 07:52:52;;;;;;;10.93;2.45;;;22.70;37.40;;;;;;6228460;28;80546;-72
2023/03/08 07:55:52;;;;;;;3.10;2.33;;;22.80;37.40;;;;;;6216006;28;80828;-73
2023/03/08 07:58:53;;;;;;;2.90;2.20;;;22.80;37.30;;;;;;6190753;28;81652;-72
2023/03/08 08:01:54;;;;;;;3.53;2.15;;;22.80;37.30;;;;;;6223413;28;80387;-73
2023/03/08 08:04:54;;;;;;;4.78;1.92;;;22.80;37.30;;;;;;6222749;28;80856;-73
2023/03/08 08:07:55;;;;;;;5.70;2.88;;;22.90;37.20;;;;;;6227661;28;80265;-75
2023/03/08 08:10:55;;;;;;;4.70;2.58;;;22.90;37.10;;;;;;6219523;28;80865;-74
2023/03/08 08:13:56;;;;;;;2.70;2.25;;;23.00;37.20;;;;;;6223943;28;83236;-75
2023/03/08 08:16:56;;;;;;;3.33;2.17;;;23.00;37.30;;;;;;6225463;28;80721;-73
2023/03/08 08:19:58;;;;;;;2.92;2.20;;;23.00;37.50;;;;;;6206197;28;80501;-75
2023/03/08 08:22:59;;;;;;;3.22;2.17;;;23.00;37.50;;;;;;6227603;28;82275;-71
2023/03/08 08:25:59;;;;;;;3.70;2.22;;;23.00;37.60;;;;;;6220544;28;80752;-74
2023/03/08 08:29:00;;;;;;;4.60;2.08;;;23.00;37.50;;;;;;6228487;28;80371;-75
2023/03/08 08:32:01;;;;;;;3.85;2.22;;;23.00;37.60;;;;;;6228624;28;80540;-72
2023/03/08 08:35:01;;;;;;;2.80;2.00;;;23.00;37.50;;;;;;6227430;28;80569;-73
2023/03/08 08:38:02;;;;;;;2.58;1.95;;;23.00;37.60;;;;;;6193124;28;83798;-70
2023/03/08 08:41:02;;;;;;;2.60;2.28;;;23.00;37.60;;;;;;6213381;28;81930;-75
2023/03/08 08:44:03;;;;;;;5.45;2.17;;;23.00;37.70;;;;;;6102445;28;82219;-54
2023/03/08 08:47:04;;;;;;;2.25;1.98;;;23.00;37.70;;;;;;5853189;28;82697;-52
2023/03/08 08:50:05;;;;;;;4.75;2.30;;;23.10;37.60;;;;;;5773584;28;83352;-53
2023/03/08 08:53:06;;;;;;;3.38;2.20;;;23.10;37.50;;;;;;5777533;28;85321;-52
2023/03/08 08:56:07;;;;;;;2.50;2.05;;;23.20;37.30;;;;;;5751438;28;85126;-56
2023/03/08 08:59:15;;;;;;;3.33;2.10;;;23.30;37.40;;;;;;5687031;28;83064;-54
2023/03/08 09:02:17;;;;;;;3.10;2.10;;;23.30;37.50;;;;;;5689696;28;83518;-51
2023/03/08 09:05:23;;;;;;;3.53;2.22;;;23.40;37.40;;;;;;5768950;28;84253;-52
2023/03/08 09:08:27;;;;;;;4.07;2.10;;;23.50;37.20;;;;;;5722132;28;83286;-54
2023/03/08 09:11:29;;;;;;;4.25;2.33;;;23.50;37.10;;;;;;5737396;28;82942;-52
2023/03/08 09:14:33;;;;;;;3.72;2.50;;;23.50;37.30;;;;;;5646393;28;83497;-51
2023/03/08 09:17:35;;;;;;;3.50;2.58;;;23.50;37.20;;;;;;5682428;28;83702;-49
2023/03/08 09:20:36;;;;;;;3.50;2.55;;;23.60;36.90;;;;;;5701326;28;83063;-51
2023/03/08 09:23:42;;;;;;;3.55;2.83;;;23.60;36.80;;;;;;5721359;28;83657;-51
2023/03/08 09:26:43;;;;;;;4.75;3.05;;;23.60;36.60;;;;;;5662168;28;83845;-52
2023/03/08 09:29:44;;;;;;;3.55;2.50;;;23.60;36.80;;;;;;5657592;28;88263;-54
2023/03/08 09:32:46;;;;;;;3.72;2.58;;;23.60;37.00;;;;;;5680063;28;83939;-49
2023/03/08 09:35:52;;;;;;;4.55;2.58;;;23.60;37.00;;;;;;5668442;28;83159;-52
2023/03/08 09:38:53;;;;;;;4.80;2.20;;;23.60;37.20;;;;;;5661108;28;85106;-51
2023/03/08 09:41:55;;;;;;;3.00;2.45;;;23.70;36.80;;;;;;5661857;28;83734;-48
2023/03/08 09:44:56;;;;;;;5.53;2.45;;;23.70;36.90;;;;;;5625376;28;84171;-50
2023/03/08 09:47:58;;;;;;;2.70;2.20;;;23.70;37.20;;;;;;5640910;28;83338;-51
2023/03/08 09:51:00;;;;;;;5.22;2.47;;;23.70;37.20;;;;;;5628855;28;84291;-53
2023/03/08 09:54:01;;;;;;;4.53;2.67;;;23.70;37.20;;;;;;5667588;28;85102;-51
2023/03/08 09:57:11;;;;;;;2.92;2.42;;;23.70;36.90;;;;;;5741785;28;82915;-53
2023/03/08 10:00:14;;;;;;;3.53;2.45;;;23.70;37.20;;;;;;5701621;28;83294;-66
2023/03/08 10:03:20;;;;;;;11.02;3.30;;;23.70;37.10;;;;;;5766101;28;85757;-63
2023/03/08 10:06:20;;;;;;;12.63;3.33;;;23.80;37.60;;;;;;5748467;28;83401;-64
2023/03/08 10:09:21;;;;;;;11.57;2.85;;;23.90;37.60;;;;;;5777864;28;83439;-69
2023/03/08 10:12:24;;;;;;;9.98;2.80;;;23.90;37.50;;;;;;5618069;28;84476;-59
2023/03/08 10:15:26;;;;;;;10.57;2.70;;;24.00;37.50;;;;;;5492493;28;85660;-60
2023/03/08 10:18:28;;;;;;;6.18;2.95;;;24.00;37.40;;;;;;5499564;28;84620;-72
2023/03/08 10:21:30;;;;;;;10.23;2.50;;;23.90;37.50;;;;;;5488064;28;84342;-60
2023/03/08 10:24:35;;;;;;;5.30;2.40;;;23.90;37.50;;;;;;5488832;28;84030;-59
2023/03/08 10:27:35;;;;;;;5.63;2.90;;;23.90;37.50;;;;;;5488754;28;83619;-66
2023/03/08 10:30:36;;;;;;;4.82;2.22;;;24.00;37.70;;;;;;5513191;28;84135;-65
2023/03/08 10:33:37;;;;;;;6.93;2.50;;;24.00;37.40;;;;;;5657415;28;84429;-68
2023/03/08 10:36:38;;;;;;;5.13;2.35;;;24.00;37.40;;;;;;6211919;28;80554;-69
2023/03/08 10:39:39;;;;;;;7.28;2.38;;;23.90;37.40;;;;;;6211775;28;86868;-68
2023/03/08 10:42:39;;;;;;;3.22;2.28;;;23.90;37.60;;;;;;6192190;28;80787;-68
2023/03/08 10:45:40;;;;;;;6.55;2.53;;;23.90;38.50;;;;;;6200429;28;88724;-67
2023/03/08 10:48:40;;;;;;;3.92;2.10;;;23.90;39.10;;;;;;6218146;28;84423;-59
2023/03/08 10:51:41;;;;;;;5.03;2.50;;;23.80;40.10;;;;;;6216012;28;80307;-58
2023/03/08 10:54:41;;;;;;;4.40;2.70;;;23.80;41.00;;;;;;6216132;28;81170;-60
2023/03/08 10:57:44;;;;;;;3.15;2.30;;;23.80;41.10;;;;;;6220034;28;80271;-58
2023/03/08 11:00:45;;;;;;;5.28;2.83;;;23.70;41.60;;;;;;6208798;28;80531;-59
2023/03/08 11:03:45;;;;;;;4.43;2.72;;;23.70;42.20;;;;;;6206092;28;80715;-59
2023/03/08 11:06:46;;;;;;;4.03;2.10;;;23.60;42.40;;;;;;6207835;28;83126;-60
2023/03/08 11:09:46;;;;;;;4.32;2.72;;;23.50;42.90;;;;;;6196431;28;83048;-61
2023/03/08 11:12:47;;;;;;;3.58;2.15;;;23.40;42.70;;;;;;6187333;28;81781;-59
2023/03/08 11:15:48;;;;;;;3.85;2.20;;;23.40;43.20;;;;;;6209220;28;80835;-60
2023/03/08 11:18:48;;;;;;;3.60;2.17;;;23.40;43.10;;;;;;6214935;28;80649;-60
2023/03/08 11:21:49;;;;;;;2.08;1.88;;;23.30;43.20;;;;;;6214945;28;81605;-59
2023/03/08 11:24:49;;;;;;;3.35;2.20;;;23.30;43.20;;;;;;6214068;28;85326;-60
2023/03/08 11:27:50;;;;;;;3.95;2.67;;;23.20;43.50;;;;;;6208648;28;80389;-61
2023/03/08 11:30:50;;;;;;;5.75;2.20;;;23.30;43.50;;;;;;6219068;28;80944;-61
2023/03/08 11:33:51;;;;;;;3.13;2.08;;;23.30;43.50;;;;;;6218366;28;82664;-60
2023/03/08 11:36:52;;;;;;;3.60;2.08;;;23.30;43.70;;;;;;6212062;28;81350;-60
2023/03/08 11:39:52;;;;;;;3.13;2.22;;;23.30;43.90;;;;;;6202244;28;81277;-59
2023/03/08 11:42:53;;;;;;;4.97;1.90;;;23.20;44.00;;;;;;6213205;28;82079;-64
2023/03/08 11:45:53;;;;;;;4.05;2.10;;;23.20;44.70;;;;;;6218672;28;80538;-63
2023/03/08 11:48:54;;;;;;;2.88;2.10;;;23.20;44.70;;;;;;6221017;28;82736;-65
2023/03/08 11:51:54;;;;;;;3.40;2.03;;;23.20;44.10;;;;;;6197735;28;82339;-65
2023/03/08 11:54:55;;;;;;;2.60;2.13;;;23.20;44.10;;;;;;6214762;28;85163;-65
2023/03/08 11:57:55;;;;;;;2.30;1.95;;;23.20;44.40;;;;;;6207515;28;82853;-65
2023/03/08 12:00:56;;;;;;;3.03;2.03;;;23.20;44.20;;;;;;6215114;28;81010;-60
2023/03/08 12:03:56;;;;;;;2.80;1.98;;;23.20;44.00;;;;;;6207339;28;80920;-60
2023/03/08 12:06:57;;;;;;;4.28;1.98;;;23.20;44.20;;;;;;6207343;28;81529;-59
2023/03/08 12:09:57;;;;;;;3.42;2.28;;;23.20;44.00;;;;;;6211963;28;82162;-59
2023/03/08 12:12:58;;;;;;;3.88;2.30;;;23.10;43.90;;;;;;6214355;28;81944;-60
2023/03/08 12:15:58;;;;;;;4.03;1.90;;;23.10;43.80;;;;;;6217739;28;81997;-59
2023/03/08 12:18:59;;;;;;;3.63;2.50;;;23.20;43.80;;;;;;6215419;28;80353;-64
2023/03/08 12:21:59;;;;;;;3.70;2.22;;;23.20;43.80;;;;;;6211949;28;89825;-62
2023/03/08 12:25:00;;;;;;;4.00;2.05;;;23.20;43.60;;;;;;6208299;28;85165;-63
2023/03/08 12:28:00;;;;;;;7.30;2.65;;;23.10;43.60;;;;;;6214930;28;81734;-65
2023/03/08 12:31:01;;;;;;;2.28;2.08;;;23.10;43.60;;;;;;6214228;28;80550;-63
2023/03/08 12:34:01;;;;;;;2.90;2.05;;;23.20;43.90;;;;;;6209577;28;86094;-63
2023/03/08 12:37:02;;;;;;;4.43;2.60;;;23.20;43.60;;;;;;6213037;28;81038;-60
2023/03/08 12:40:04;;;;;;;3.15;2.33;;;23.20;43.20;;;;;;6211337;28;81561;-60
2023/03/08 12:43:05;;;;;;;3.03;2.38;;;23.40;43.70;;;;;;6210638;28;81537;-59
2023/03/08 12:46:05;;;;;;;5.47;2.33;;;23.50;44.50;;;;;;6209302;28;80699;-60
2023/03/08 12:49:06;;;;;;;5.63;2.08;;;23.60;44.40;;;;;;6220099;28;81038;-60
2023/03/08 12:52:06;;;;;;;3.53;2.50;;;23.60;44.40;;;;;;6207176;28;81338;-60
2023/03/08 12:55:09;;;;;;;3.08;2.33;;;23.70;43.90;;;;;;6207680;28;80439;-59
2023/03/08 12:58:10;;;;;;;2.08;1.80;;;23.70;44.10;;;;;;6209419;28;80183;-59
2023/03/08 13:01:10;;;;;;;3.92;2.22;;;23.70;43.50;;;;;;6208124;28;81838;-60
2023/03/08 13:04:11;;;;;;;6.13;2.92;;;23.70;43.40;;;;;;6223848;28;80474;-60
2023/03/08 13:07:11;;;;;;;3.28;2.42;;;23.70;43.20;;;;;;6195852;28;82217;-59
2023/03/08 13:10:12;;;;;;;4.28;2.78;;;23.60;42.90;;;;;;6220534;28;80855;-60
2023/03/08 13:13:12;;;;;;;5.40;2.30;;;23.60;43.40;;;;;;6221710;28;81078;-64
2023/03/08 13:16:13;;;;;;;3.42;2.22;;;23.70;42.50;;;;;;6227023;28;81413;-63
2023/03/08 13:19:14;;;;;;;3.83;2.25;;;23.70;42.70;;;;;;6216361;28;80582;-64
2023/03/08 13:22:14;;;;;;;5.13;2.10;;;23.70;42.40;;;;;;6227185;28;81210;-62
2023/03/08 13:25:15;;;;;;;5.80;2.60;;;23.70;42.20;;;;;;6220692;28;80842;-62
2023/03/08 13:28:15;;;;;;;3.60;2.10;;;23.70;41.90;;;;;;6208838;28;80759;-64
2023/03/08 13:31:16;;;;;;;5.43;2.50;;;23.70;42.10;;;;;;6210961;28;81708;-58
2023/03/08 13:34:16;;;;;;;4.05;2.40;;;23.70;42.00;;;;;;6201582;28;81182;-63
2023/03/08 13:37:17;;;;;;;3.47;2.30;;;23.70;42.00;;;;;;6190566;28;88477;-68
2023/03/08 13:40:18;;;;;;;2.35;1.98;;;23.70;41.30;;;;;;6204484;28;81306;-65
2023/03/08 13:43:18;;;;;;;3.55;2.53;;;23.70;41.30;;;;;;6208740;28;81645;-62
2023/03/08 13:46:19;;;;;;;3.47;2.25;;;23.60;41.00;;;;;;6208814;28;81871;-65
2023/03/08 13:49:19;;;;;;;5.28;2.30;;;23.60;41.10;;;;;;6201723;28;80337;-64
2023/03/08 13:52:20;;;;;;;2.90;2.10;;;23.60;40.80;;;;;;6198325;28;84608;-60
2023/03/08 13:55:20;;;;;;;3.85;2.10;;;23.60;40.90;;;;;;6205835;28;80473;-60
2023/03/08 13:58:21;;;;;;;3.65;2.50;;;23.50;40.70;;;;;;6207294;28;80495;-59
2023/03/08 14:01:21;;;;;;;3.40;2.15;;;23.50;40.50;;;;;;6191737;28;82065;-60
2023/03/08 14:04:22;;;;;;;3.42;2.20;;;23.50;40.60;;;;;;6205670;28;82861;-63
2023/03/08 14:07:23;;;;;;;3.83;2.40;;;23.50;40.80;;;;;;6199562;28;81306;-60
2023/03/08 14:10:26;;;;;;;7.55;2.90;;;23.50;40.90;;;;;;6204660;28;81649;-62
2023/03/08 14:13:26;;;;;;;8.57;2.42;;;23.40;40.60;;;;;;6207460;28;82678;-62
2023/03/08 14:16:27;;;;;;;3.80;2.65;;;23.40;40.60;;;;;;6200893;28;81043;-61
2023/03/08 14:19:27;;;;;;;6.65;2.90;;;23.40;40.90;;;;;;6200821;28;85581;-61
2023/03/08 14:22:28;;;;;;;4.90;2.65;;;23.40;40.80;;;;;;6203616;28;80636;-61
2023/03/08 14:25:29;;;;;;;6.15;2.42;;;23.40;40.90;;;;;;6195413;28;81393;-59
2023/03/08 14:28:29;;;;;;;13.20;2.72;;;23.40;41.10;;;;;;6211164;28;83829;-60
2023/03/08 14:31:30;;;;;;;6.85;2.60;;;23.30;41.50;;;;;;6213350;28;80978;-59
2023/03/08 14:34:34;;;;;;;6.40;2.40;;;23.30;41.80;;;;;;6214664;28;80801;-60
2023/03/08 14:37:35;;;;;;;6.07;2.97;;;23.40;42.00;;;;;;6185643;28;81865;-63
2023/03/08 14:40:36;;;;;;;3.83;2.60;;;23.40;42.00;;;;;;6219169;28;80600;-61
2023/03/08 14:43:36;;;;;;;3.45;2.45;;;23.40;41.50;;;;;;6218824;28;80360;-62
2023/03/08 14:46:37;;;;;;;4.43;2.55;;;23.40;41.30;;;;;;6209505;28;80751;-60
2023/03/08 14:49:37;;;;;;;6.90;2.88;;;23.40;41.00;;;;;;6202844;28;80718;-60
2023/03/08 14:52:38;;;;;;;5.40;3.00;;;23.40;40.90;;;;;;6208170;28;81685;-57
2023/03/08 14:55:39;;;;;;;3.70;2.15;;;23.40;40.60;;;;;;6217261;28;81004;-58
2023/03/08 14:58:39;;;;;;;5.43;2.50;;;23.30;40.20;;;;;;6217390;28;81092;-60
2023/03/08 15:01:40;;;;;;;5.68;2.70;;;23.40;40.20;;;;;;6222538;28;80438;-61
2023/03/08 15:04:40;;;;;;;5.78;2.83;;;23.40;40.10;;;;;;6225996;28;81024;-62
2023/03/08 15:07:41;;;;;;;5.47;3.13;;;23.40;39.90;;;;;;6227158;28;81367;-62
2023/03/08 15:10:41;;;;;;;8.63;3.65;;;23.30;40.00;;;;;;6227932;28;80841;-62
2023/03/08 15:13:43;;;;;;;6.03;3.10;;;23.30;39.80;;;;;;6226574;28;81632;-63
2023/03/08 15:16:44;;;;;;;9.50;3.78;;;23.30;39.90;;;;;;6227441;28;80421;-63
2023/03/08 15:19:44;;;;;;;9.27;3.53;;;23.30;39.60;;;;;;6227740;28;83410;-63
2023/03/08 15:22:45;;;;;;;7.03;3.88;;;23.30;39.70;;;;;;6228607;28;80476;-63
2023/03/08 15:25:46;;;;;;;5.25;3.20;;;23.30;39.50;;;;;;6217142;28;80198;-63
2023/03/08 15:28:46;;;;;;;5.75;3.22;;;23.30;39.40;;;;;;6219246;28;80862;-62
2023/03/08 15:31:47;;;;;;;5.55;3.17;;;23.20;39.20;;;;;;6223445;28;80806;-62
2023/03/08 15:34:47;;;;;;;6.18;3.22;;;23.20;39.10;;;;;;6218562;28;81406;-63
2023/03/08 15:37:48;;;;;;;5.65;3.30;;;23.20;39.20;;;;;;6226687;28;83215;-63
2023/03/08 15:40:48;;;;;;;5.75;2.72;;;23.20;39.10;;;;;;6223598;28;81608;-63
2023/03/08 15:43:50;;;;;;;5.72;3.20;;;23.20;39.10;;;;;;6221276;28;81452;-62
2023/03/08 15:46:50;;;;;;;7.63;2.70;;;23.20;39.10;;;;;;6218801;28;82546;-62